Time;durP1;ratioP1;P1;durP2;ratioP2;P2;SDS_P1;SDS_P2;PMS_P1;PMS_P2;Temp;Humidity;BMP_temperature;BMP_pressure;BME280_temperature;BME280_humidity;BME280_pressure;Samples;Min_cycle;Max_cycle;Signal;HPM_P1;HPM_P2
2022/03/20 00:01:19;;;;;;;19.50;11.00;;;;;;;;;;5043511;28;20025;-83
2022/03/20 00:03:45;;;;;;;24.92;11.45;;;;;;;;;;5028628;28;20045;-83
2022/03/20 00:06:10;;;;;;;27.13;12.52;;;;;;;;;;5046595;28;20081;-82
2022/03/20 00:08:35;;;;;;;21.05;10.80;;;;;;;;;;5032993;28;20025;-83
2022/03/20 00:11:02;;;;;;;21.58;10.77;;;;;;;;;;5050912;28;20017;-82
2022/03/20 00:13:28;;;;;;;25.70;12.57;;;;;;;;;;5051370;28;20094;-83
2022/03/20 00:15:54;;;;;;;26.60;13.13;;;;;;;;;;5031673;28;20512;-82
2022/03/20 00:18:21;;;;;;;23.33;12.32;;;;;;;;;;5056499;28;20028;-83
2022/03/20 00:20:47;;;;;;;27.70;12.55;;;;;;;;;;5068682;28;20021;-82
2022/03/20 00:23:17;;;;;;;19.65;11.45;;;;;;;;;;5073158;28;20050;-83
2022/03/20 00:25:44;;;;;;;26.40;12.23;;;;;;;;;;5073936;28;20009;-82
2022/03/20 00:28:14;;;;;;;24.08;12.23;;;;;;;;;;5057185;28;20013;-83
2022/03/20 00:30:43;;;;;;;23.27;11.55;;;;;;;;;;5078304;28;20069;-84
2022/03/20 00:33:08;;;;;;;24.25;11.93;;;;;;;;;;5052663;28;20036;-84
2022/03/20 00:35:34;;;;;;;24.60;11.90;;;;;;;;;;5049822;28;20025;-82
2022/03/20 00:37:59;;;;;;;23.73;11.82;;;;;;;;;;5066200;28;20009;-83
2022/03/20 00:40:24;;;;;;;26.30;12.05;;;;;;;;;;5058824;28;20040;-84
2022/03/20 00:42:51;;;;;;;26.15;12.27;;;;;;;;;;5077688;28;20021;-84
2022/03/20 00:45:19;;;;;;;28.02;12.05;;;;;;;;;;5077742;28;20041;-84
2022/03/20 00:47:44;;;;;;;24.35;11.75;;;;;;;;;;5077633;28;20021;-83
2022/03/20 00:50:13;;;;;;;23.30;11.43;;;;;;;;;;5061354;28;20039;-84
2022/03/20 00:55:13;;;;;;;23.98;11.93;;;;;;;;;;5174759;22;20093;-82
2022/03/20 00:57:38;;;;;;;21.52;10.80;;;;;;;;;;5049095;28;20021;-82
2022/03/20 01:00:04;;;;;;;28.17;11.88;;;;;;;;;;5049913;28;20029;-82
2022/03/20 01:02:36;;;;;;;25.73;11.50;;;;;;;;;;5050633;28;20017;-82
2022/03/20 01:05:01;;;;;;;23.00;11.82;;;;;;;;;;5050432;28;20017;-82
2022/03/20 01:07:26;;;;;;;22.30;11.93;;;;;;;;;;5049861;28;20043;-83
2022/03/20 01:09:51;;;;;;;21.83;11.73;;;;;;;;;;5050596;28;20014;-83
2022/03/20 01:12:17;;;;;;;28.50;11.35;;;;;;;;;;5050066;28;20024;-82
2022/03/20 01:14:42;;;;;;;26.73;11.73;;;;;;;;;;5049935;28;20021;-82
2022/03/20 01:17:07;;;;;;;24.80;11.55;;;;;;;;;;5051684;28;20017;-82
2022/03/20 01:19:33;;;;;;;26.27;11.27;;;;;;;;;;5046247;28;20025;-81
2022/03/20 01:21:59;;;;;;;22.30;11.25;;;;;;;;;;5043108;28;20437;-81
2022/03/20 01:24:27;;;;;;;21.63;11.60;;;;;;;;;;5045172;28;20377;-82
2022/03/20 01:26:52;;;;;;;24.80;11.90;;;;;;;;;;5046948;28;20017;-81
2022/03/20 01:29:17;;;;;;;26.25;12.35;;;;;;;;;;5048477;28;20048;-82
2022/03/20 01:31:43;;;;;;;24.20;11.57;;;;;;;;;;5050855;28;20025;-81
2022/03/20 01:34:08;;;;;;;25.33;12.15;;;;;;;;;;5040074;28;20358;-81
2022/03/20 01:36:33;;;;;;;23.95;11.68;;;;;;;;;;5038762;28;20121;-81
2022/03/20 01:38:58;;;;;;;31.10;11.65;;;;;;;;;;5023674;28;20021;-81
2022/03/20 01:41:24;;;;;;;26.95;12.38;;;;;;;;;;5040440;28;20021;-82
2022/03/20 01:43:49;;;;;;;23.98;12.02;;;;;;;;;;5039642;28;20017;-81
2022/03/20 01:46:15;;;;;;;26.63;11.75;;;;;;;;;;5039847;28;20024;-83
2022/03/20 01:48:40;;;;;;;29.48;12.38;;;;;;;;;;5054088;28;20103;-84
2022/03/20 01:51:05;;;;;;;23.83;12.02;;;;;;;;;;5053941;28;20026;-82
2022/03/20 01:53:34;;;;;;;25.67;12.73;;;;;;;;;;5055584;28;20005;-84
2022/03/20 01:56:00;;;;;;;22.27;11.63;;;;;;;;;;5341876;22;20053;-83
2022/03/20 01:58:28;;;;;;;24.40;11.10;;;;;;;;;;5893065;23;21384;-83
2022/03/20 02:00:54;;;;;;;26.73;12.00;;;;;;;;;;5189420;22;20045;-85
2022/03/20 02:03:20;;;;;;;29.15;12.73;;;;;;;;;;5317385;22;20046;-83
2022/03/20 02:05:45;;;;;;;27.25;12.65;;;;;;;;;;5058251;28;19998;-85
2022/03/20 02:10:49;;;;;;;26.02;12.55;;;;;;;;;;5675853;22;20111;-84
2022/03/20 02:13:15;;;;;;;28.35;13.55;;;;;;;;;;5059797;28;20017;-83
2022/03/20 02:15:41;;;;;;;25.85;11.93;;;;;;;;;;5058444;28;20060;-83
2022/03/20 02:18:07;;;;;;;25.70;13.07;;;;;;;;;;5057675;28;20025;-84
2022/03/20 02:20:38;;;;;;;31.50;12.65;;;;;;;;;;5058742;28;20047;-83
2022/03/20 02:23:09;;;;;;;26.45;12.77;;;;;;;;;;5057031;28;20013;-84
2022/03/20 02:25:35;;;;;;;27.83;12.88;;;;;;;;;;5057080;28;20028;-82
2022/03/20 02:28:03;;;;;;;29.85;11.93;;;;;;;;;;5057676;28;20017;-83
2022/03/20 02:30:30;;;;;;;26.67;12.95;;;;;;;;;;5057271;28;20013;-83
2022/03/20 02:32:56;;;;;;;25.60;12.48;;;;;;;;;;5056549;28;20025;-83
2022/03/20 02:35:22;;;;;;;23.35;11.85;;;;;;;;;;5058715;28;20032;-83
2022/03/20 02:37:48;;;;;;;26.98;12.68;;;;;;;;;;5056212;28;20001;-82
2022/03/20 02:40:17;;;;;;;26.33;12.25;;;;;;;;;;5058952;28;19997;-83
2022/03/20 02:42:44;;;;;;;28.73;12.25;;;;;;;;;;5059610;28;20024;-83
2022/03/20 02:45:11;;;;;;;23.83;11.85;;;;;;;;;;5058510;28;20006;-83
2022/03/20 02:47:41;;;;;;;25.30;12.10;;;;;;;;;;5058211;28;20001;-84
2022/03/20 02:50:13;;;;;;;24.38;11.48;;;;;;;;;;5059868;28;20053;-83
2022/03/20 02:52:46;;;;;;;31.15;12.82;;;;;;;;;;5060613;28;20037;-84
2022/03/20 02:55:14;;;;;;;25.33;11.60;;;;;;;;;;5060497;28;20017;-83
2022/03/20 02:57:40;;;;;;;25.63;12.02;;;;;;;;;;5060195;28;20085;-83
2022/03/20 03:00:06;;;;;;;24.35;11.40;;;;;;;;;;5060615;28;20056;-84
2022/03/20 03:02:36;;;;;;;24.15;11.52;;;;;;;;;;5058696;28;20037;-82
2022/03/20 03:05:02;;;;;;;27.85;12.35;;;;;;;;;;5059124;28;20024;-83
2022/03/20 03:07:28;;;;;;;27.13;11.77;;;;;;;;;;5059097;28;20030;-82
2022/03/20 03:12:41;;;;;;;25.88;12.10;;;;;;;;;;5060420;28;20038;-83
2022/03/20 03:15:24;;;;;;;31.58;12.18;;;;;;;;;;5059722;28;20018;-83
2022/03/20 03:20:25;;;;;;;26.27;12.27;;;;;;;;;;5111089;23;20048;-83
2022/03/20 03:22:50;;;;;;;25.13;12.73;;;;;;;;;;5074773;28;20021;-82
2022/03/20 03:25:17;;;;;;;24.50;12.30;;;;;;;;;;5059767;28;20001;-84
2022/03/20 03:27:43;;;;;;;29.92;11.85;;;;;;;;;;5059082;28;20021;-83
2022/03/20 03:30:10;;;;;;;26.33;11.63;;;;;;;;;;5076040;28;20089;-83
2022/03/20 03:32:35;;;;;;;24.27;10.80;;;;;;;;;;5048138;28;20034;-82
2022/03/20 03:37:44;;;;;;;22.63;11.02;;;;;;;;;;5052487;28;20503;-81
2022/03/20 03:40:11;;;;;;;26.15;11.15;;;;;;;;;;5075672;28;19997;-83
2022/03/20 03:42:39;;;;;;;26.00;12.00;;;;;;;;;;5078872;28;20025;-83
2022/03/20 03:45:06;;;;;;;23.55;11.48;;;;;;;;;;5077842;28;20045;-84
2022/03/20 03:47:32;;;;;;;25.38;11.85;;;;;;;;;;5076908;28;20055;-82
2022/03/20 03:49:58;;;;;;;25.95;11.15;;;;;;;;;;5071250;28;20025;-82
2022/03/20 03:52:23;;;;;;;25.00;11.75;;;;;;;;;;5062177;28;20025;-82
2022/03/20 03:54:49;;;;;;;22.50;11.20;;;;;;;;;;5052444;28;20037;-82
2022/03/20 03:57:14;;;;;;;28.88;11.40;;;;;;;;;;5056119;28;20021;-81
2022/03/20 03:59:40;;;;;;;29.30;11.50;;;;;;;;;;5056973;28;20028;-82
2022/03/20 04:04:41;;;;;;;27.50;12.45;;;;;;;;;;5697253;23;20049;-83
2022/03/20 04:07:07;;;;;;;27.60;11.75;;;;;;;;;;5045013;28;20048;-81
2022/03/20 04:09:32;;;;;;;24.48;12.10;;;;;;;;;;5048239;28;20051;-82
2022/03/20 04:11:58;;;;;;;26.77;13.50;;;;;;;;;;5045224;28;20385;-82
2022/03/20 04:14:23;;;;;;;23.80;11.68;;;;;;;;;;5042630;28;20056;-82
2022/03/20 04:16:49;;;;;;;29.13;12.27;;;;;;;;;;5043300;28;20022;-84
2022/03/20 04:19:14;;;;;;;22.85;11.27;;;;;;;;;;5057772;28;20029;-84
2022/03/20 04:21:48;;;;;;;27.50;12.02;;;;;;;;;;5055281;28;20017;-83
2022/03/20 04:24:24;;;;;;;25.20;12.07;;;;;;;;;;5056935;28;20025;-84
2022/03/20 04:26:49;;;;;;;25.15;11.75;;;;;;;;;;5056329;28;20025;-83
2022/03/20 04:29:22;;;;;;;25.33;12.68;;;;;;;;;;5057220;28;20081;-84
2022/03/20 05:00:44;;;;;;;26.85;11.20;;;;;;;;;;5058772;28;20060;-83
2022/03/20 05:03:12;;;;;;;28.13;12.07;;;;;;;;;;5058255;28;20009;-83
2022/03/20 05:13:23;;;;;;;26.70;11.95;;;;;;;;;;5448949;22;20061;-82
2022/03/20 05:15:48;;;;;;;24.67;12.20;;;;;;;;;;5056473;28;20053;-81
2022/03/20 05:18:14;;;;;;;27.73;12.65;;;;;;;;;;5050591;28;20025;-82
2022/03/20 05:20:40;;;;;;;26.40;12.07;;;;;;;;;;5049863;28;20025;-82
2022/03/20 05:23:05;;;;;;;25.13;11.50;;;;;;;;;;5045386;28;20018;-81
2022/03/20 05:25:31;;;;;;;29.02;11.88;;;;;;;;;;5049969;28;20084;-82
2022/03/20 05:35:49;;;;;;;26.50;11.40;;;;;;;;;;5017231;28;20035;-82
2022/03/20 05:38:15;;;;;;;26.85;11.57;;;;;;;;;;5084752;22;20033;-82
2022/03/20 05:40:41;;;;;;;23.60;10.80;;;;;;;;;;5073909;28;20089;-84
2022/03/20 05:43:12;;;;;;;26.10;10.70;;;;;;;;;;5058671;28;20005;-84
2022/03/20 05:45:40;;;;;;;31.38;12.70;;;;;;;;;;5655025;22;20029;-82
2022/03/20 05:48:08;;;;;;;22.75;11.18;;;;;;;;;;5057480;28;20036;-82
2022/03/20 05:50:33;;;;;;;31.10;12.35;;;;;;;;;;5058317;28;20022;-82
2022/03/20 05:52:58;;;;;;;30.08;12.68;;;;;;;;;;5056397;28;20022;-82
2022/03/20 05:58:01;;;;;;;26.08;12.45;;;;;;;;;;5059762;28;19994;-82
2022/03/20 05:58:13;;;;;;;25.50;11.05;;;;;;;;;;5055335;28;20026;-82
2022/03/20 06:00:41;;;;;;;24.80;11.38;;;;;;;;;;5056549;28;20025;-82
2022/03/20 06:03:11;;;;;;;25.20;12.35;;;;;;;;;;5058334;28;20033;-82
2022/03/20 06:05:37;;;;;;;27.63;11.35;;;;;;;;;;5059093;28;20006;-83
2022/03/20 06:08:04;;;;;;;27.55;11.88;;;;;;;;;;5058515;28;20021;-81
2022/03/20 06:10:30;;;;;;;26.98;12.13;;;;;;;;;;5052835;28;20018;-82
2022/03/20 06:12:56;;;;;;;22.30;11.27;;;;;;;;;;5056359;28;20045;-83
2022/03/20 06:15:25;;;;;;;24.98;11.63;;;;;;;;;;5059987;28;20031;-84
2022/03/20 06:17:52;;;;;;;22.80;11.15;;;;;;;;;;5059871;28;20008;-84
2022/03/20 06:20:21;;;;;;;25.17;11.60;;;;;;;;;;5050902;28;20022;-82
2022/03/20 06:22:49;;;;;;;22.85;10.25;;;;;;;;;;5044971;28;20017;-83
2022/03/20 06:25:20;;;;;;;29.00;12.10;;;;;;;;;;5058590;28;20025;-84
2022/03/20 06:30:35;;;;;;;28.58;12.02;;;;;;;;;;5842758;22;20101;-84
2022/03/20 06:33:04;;;;;;;28.25;11.95;;;;;;;;;;5059254;28;20005;-84
2022/03/20 06:35:30;;;;;;;24.48;11.38;;;;;;;;;;5057606;28;20001;-84
2022/03/20 06:48:14;;;;;;;26.60;11.88;;;;;;;;;;5014672;28;20125;-82
2022/03/20 06:50:42;;;;;;;23.02;11.13;;;;;;;;;;5016438;28;20034;-83
2022/03/20 06:53:07;;;;;;;29.15;12.25;;;;;;;;;;5067132;23;20046;-82
2022/03/20 06:55:33;;;;;;;22.90;11.30;;;;;;;;;;5068776;28;20017;-83
2022/03/20 06:57:59;;;;;;;25.08;11.43;;;;;;;;;;5055636;22;20045;-78
2022/03/20 07:00:26;;;;;;;26.75;11.52;;;;;;;;;;5054430;28;20029;-78
2022/03/20 07:02:51;;;;;;;22.70;10.68;;;;;;;;;;5037490;28;20021;-77
2022/03/20 07:05:16;;;;;;;23.88;11.07;;;;;;;;;;5037104;28;20025;-78
2022/03/20 07:07:42;;;;;;;25.92;10.82;;;;;;;;;;5035433;28;20021;-78
2022/03/20 07:10:08;;;;;;;24.67;10.70;;;;;;;;;;5037008;28;20530;-78
2022/03/20 07:12:33;;;;;;;24.17;10.98;;;;;;;;;;5036010;28;20026;-78
2022/03/20 07:14:59;;;;;;;31.00;11.55;;;;;;;;;;5037130;28;20087;-78
2022/03/20 07:17:24;;;;;;;24.80;11.70;;;;;;;;;;5036562;28;20080;-78
2022/03/20 07:19:50;;;;;;;21.10;10.65;;;;;;;;;;5034125;28;20464;-79
2022/03/20 07:22:16;;;;;;;21.23;10.43;;;;;;;;;;5033975;28;20026;-79
2022/03/20 07:24:42;;;;;;;24.40;11.15;;;;;;;;;;5035749;28;20022;-78
2022/03/20 07:29:52;;;;;;;24.67;11.50;;;;;;;;;;5027867;28;20029;-78
2022/03/20 07:32:17;;;;;;;22.85;10.32;;;;;;;;;;5034394;28;20025;-79
2022/03/20 07:34:45;;;;;;;26.05;12.52;;;;;;;;;;5034557;28;20022;-78
2022/03/20 07:37:11;;;;;;;23.80;11.30;;;;;;;;;;5034712;28;20017;-78
2022/03/20 07:39:36;;;;;;;20.40;10.73;;;;;;;;;;5035562;28;20024;-79
2022/03/20 07:42:02;;;;;;;22.40;10.38;;;;;;;;;;5033387;28;20020;-78
2022/03/20 07:44:29;;;;;;;25.48;11.70;;;;;;;;;;5033359;28;20032;-79
2022/03/20 07:46:54;;;;;;;20.30;10.77;;;;;;;;;;5035096;28;20020;-78
2022/03/20 07:49:20;;;;;;;22.15;10.30;;;;;;;;;;5033111;28;20018;-78
2022/03/20 07:51:46;;;;;;;24.40;11.15;;;;;;;;;;5034200;28;20101;-79
2022/03/20 07:54:11;;;;;;;22.17;10.25;;;;;;;;;;5034350;28;20052;-78
2022/03/20 07:56:37;;;;;;;19.15;9.52;;;;;;;;;;5032917;28;20468;-78
2022/03/20 07:59:05;;;;;;;21.50;9.63;;;;;;;;;;5032451;28;20620;-78
2022/03/20 08:01:31;;;;;;;21.23;10.25;;;;;;;;;;5034410;28;20095;-78
2022/03/20 08:03:57;;;;;;;18.77;9.73;;;;;;;;;;5034602;28;20109;-79
2022/03/20 08:06:22;;;;;;;17.73;9.40;;;;;;;;;;5032006;28;20469;-78
2022/03/20 08:08:47;;;;;;;18.63;9.15;;;;;;;;;;5033960;28;20057;-79
2022/03/20 08:11:12;;;;;;;19.52;8.88;;;;;;;;;;5034341;28;20021;-77
2022/03/20 08:13:37;;;;;;;16.75;9.25;;;;;;;;;;5032972;28;20041;-78
2022/03/20 08:16:04;;;;;;;19.70;9.50;;;;;;;;;;5032902;28;20602;-78
2022/03/20 08:18:29;;;;;;;20.67;8.85;;;;;;;;;;5034902;28;20102;-78
2022/03/20 08:20:55;;;;;;;17.25;8.68;;;;;;;;;;5033720;28;20484;-78
2022/03/20 08:23:20;;;;;;;18.63;9.13;;;;;;;;;;5034696;28;20013;-77
2022/03/20 08:25:45;;;;;;;22.35;9.48;;;;;;;;;;5034009;28;20373;-77
2022/03/20 08:28:11;;;;;;;19.23;9.13;;;;;;;;;;5032673;28;20018;-77
2022/03/20 08:30:36;;;;;;;19.80;9.23;;;;;;;;;;5035577;28;20049;-78
2022/03/20 08:33:02;;;;;;;21.42;9.18;;;;;;;;;;5034283;28;20464;-78
2022/03/20 08:35:27;;;;;;;20.85;9.65;;;;;;;;;;5034279;28;20496;-77
2022/03/20 08:37:53;;;;;;;18.23;8.68;;;;;;;;;;5034558;28;20022;-78
2022/03/20 08:40:19;;;;;;;20.58;10.25;;;;;;;;;;5032547;28;20032;-77
2022/03/20 08:42:49;;;;;;;19.85;10.15;;;;;;;;;;5033935;28;20033;-78
2022/03/20 08:45:14;;;;;;;17.95;8.80;;;;;;;;;;5034027;28;20022;-79
2022/03/20 08:47:40;;;;;;;20.20;9.63;;;;;;;;;;5034661;28;20043;-77
2022/03/20 08:50:06;;;;;;;15.70;8.55;;;;;;;;;;5031902;28;20022;-77
2022/03/20 08:52:31;;;;;;;18.70;9.35;;;;;;;;;;5032908;28;20025;-78
2022/03/20 08:54:56;;;;;;;18.85;9.70;;;;;;;;;;5033790;28;20024;-78
2022/03/20 08:57:25;;;;;;;21.00;8.73;;;;;;;;;;5033539;28;20409;-77
2022/03/20 08:59:50;;;;;;;18.50;9.43;;;;;;;;;;5031677;28;20033;-77
2022/03/20 09:02:15;;;;;;;23.95;9.27;;;;;;;;;;5033206;28;20068;-78
2022/03/20 09:04:40;;;;;;;16.75;9.05;;;;;;;;;;5032159;28;20252;-77
2022/03/20 09:07:05;;;;;;;21.08;9.60;;;;;;;;;;5033035;28;20064;-79
2022/03/20 09:09:31;;;;;;;17.23;9.30;;;;;;;;;;5033908;28;20098;-78
2022/03/20 09:11:56;;;;;;;16.83;8.45;;;;;;;;;;5035359;28;20045;-78
2022/03/20 09:14:21;;;;;;;17.88;8.95;;;;;;;;;;5033466;28;20059;-78
2022/03/20 09:19:30;;;;;;;19.35;10.00;;;;;;;;;;5037933;28;20450;-78
2022/03/20 09:21:55;;;;;;;17.42;8.52;;;;;;;;;;5037223;28;20013;-76
2022/03/20 09:24:21;;;;;;;15.45;9.15;;;;;;;;;;5037459;28;20022;-77
2022/03/20 09:26:46;;;;;;;14.25;7.85;;;;;;;;;;5039353;28;20021;-77
2022/03/20 09:29:14;;;;;;;16.85;8.90;;;;;;;;;;5038555;28;20064;-77
2022/03/20 09:31:39;;;;;;;17.15;8.82;;;;;;;;;;5037236;28;20024;-76
2022/03/20 09:34:04;;;;;;;18.02;8.00;;;;;;;;;;5035304;28;20017;-77
2022/03/20 09:36:32;;;;;;;15.65;8.20;;;;;;;;;;5036361;28;20017;-76
2022/03/20 09:38:57;;;;;;;15.67;7.80;;;;;;;;;;5035990;28;20075;-76
2022/03/20 09:41:27;;;;;;;19.40;7.97;;;;;;;;;;5036671;28;20389;-76
2022/03/20 09:43:52;;;;;;;16.98;8.65;;;;;;;;;;5037290;28;20018;-76
2022/03/20 09:46:21;;;;;;;18.30;8.38;;;;;;;;;;5036454;28;20457;-76
2022/03/20 09:48:46;;;;;;;14.95;8.32;;;;;;;;;;5036254;28;20025;-76
2022/03/20 09:51:12;;;;;;;17.52;7.95;;;;;;;;;;5034169;28;20028;-82
2022/03/20 09:53:37;;;;;;;16.50;8.70;;;;;;;;;;5034413;28;20022;-78
2022/03/20 09:56:05;;;;;;;17.25;7.72;;;;;;;;;;5035187;28;20429;-78
2022/03/20 09:58:31;;;;;;;23.98;8.43;;;;;;;;;;5035484;28;20075;-77
2022/03/20 10:00:56;;;;;;;19.15;8.38;;;;;;;;;;5034388;28;20468;-78
2022/03/20 10:03:22;;;;;;;16.25;7.75;;;;;;;;;;5035514;28;20010;-78
2022/03/20 10:06:03;;;;;;;17.80;7.80;;;;;;;;;;5036041;28;20013;-79
2022/03/20 10:08:28;;;;;;;16.10;7.95;;;;;;;;;;5035326;28;20024;-79
2022/03/20 10:11:10;;;;;;;15.18;7.78;;;;;;;;;;5035040;28;20021;-80
2022/03/20 10:13:36;;;;;;;14.63;8.38;;;;;;;;;;5034214;28;20112;-79
2022/03/20 10:16:16;;;;;;;16.75;7.93;;;;;;;;;;5035020;28;20059;-77
2022/03/20 10:18:41;;;;;;;16.42;8.13;;;;;;;;;;5035349;28;20082;-79
2022/03/20 10:21:09;;;;;;;24.60;8.57;;;;;;;;;;5033828;28;20021;-78
2022/03/20 10:23:36;;;;;;;12.38;7.15;;;;;;;;;;5033671;28;20022;-77
2022/03/20 10:26:16;;;;;;;12.55;6.65;;;;;;;;;;5034929;28;20101;-78
2022/03/20 10:28:43;;;;;;;16.80;6.60;;;;;;;;;;5033356;28;20013;-79
2022/03/20 10:31:10;;;;;;;17.98;7.72;;;;;;;;;;5034594;28;20022;-77
2022/03/20 10:33:40;;;;;;;15.25;7.78;;;;;;;;;;5034494;28;20100;-79
2022/03/20 10:36:19;;;;;;;14.38;7.25;;;;;;;;;;5034830;28;20017;-79
2022/03/20 10:38:46;;;;;;;15.70;7.75;;;;;;;;;;5034361;28;20032;-77
2022/03/20 10:41:27;;;;;;;17.00;6.45;;;;;;;;;;5033928;28;20024;-79
2022/03/20 10:43:56;;;;;;;12.23;7.38;;;;;;;;;;5034252;28;20018;-85
2022/03/20 10:46:23;;;;;;;14.18;6.68;;;;;;;;;;5032940;28;20558;-83
2022/03/20 10:48:49;;;;;;;11.93;6.38;;;;;;;;;;5033945;28;20067;-80
2022/03/20 10:51:24;;;;;;;12.95;6.60;;;;;;;;;;5033979;28;20078;-79
2022/03/20 10:53:59;;;;;;;12.50;6.90;;;;;;;;;;5033921;28;20098;-78
2022/03/20 10:56:25;;;;;;;11.55;6.93;;;;;;;;;;5033737;28;20113;-79
2022/03/20 10:58:50;;;;;;;15.45;7.43;;;;;;;;;;5032681;28;20056;-79
2022/03/20 11:01:17;;;;;;;14.50;7.00;;;;;;;;;;5033531;28;20032;-78
2022/03/20 11:03:42;;;;;;;11.93;6.65;;;;;;;;;;5033021;28;20500;-78
2022/03/20 11:06:08;;;;;;;13.60;6.90;;;;;;;;;;5033792;28;20308;-79
2022/03/20 11:08:33;;;;;;;13.40;7.07;;;;;;;;;;5033447;28;20025;-78
2022/03/20 11:10:59;;;;;;;12.98;7.05;;;;;;;;;;5033801;28;20055;-77
2022/03/20 11:13:26;;;;;;;11.63;6.90;;;;;;;;;;5033568;28;20473;-78
2022/03/20 11:15:53;;;;;;;12.68;7.75;;;;;;;;;;5031633;28;20484;-84
2022/03/20 11:18:18;;;;;;;16.13;7.32;;;;;;;;;;5031998;28;20028;-81
2022/03/20 11:20:50;;;;;;;14.18;7.35;;;;;;;;;;5032253;28;20104;-80
2022/03/20 11:23:17;;;;;;;13.65;6.68;;;;;;;;;;5035006;28;20032;-78
2022/03/20 11:25:47;;;;;;;9.45;5.82;;;;;;;;;;5036517;28;20021;-80
2022/03/20 11:28:13;;;;;;;12.20;7.57;;;;;;;;;;5034499;28;20025;-81
2022/03/20 11:30:39;;;;;;;16.70;6.57;;;;;;;;;;5032366;28;20095;-78
2022/03/20 11:33:05;;;;;;;13.20;6.55;;;;;;;;;;5034484;28;20417;-79
2022/03/20 11:35:31;;;;;;;11.05;6.20;;;;;;;;;;5033400;28;20021;-80
2022/03/20 11:38:11;;;;;;;11.20;5.93;;;;;;;;;;5034349;28;20025;-80
2022/03/20 11:40:41;;;;;;;13.93;6.68;;;;;;;;;;5033174;28;20017;-79
2022/03/20 11:43:19;;;;;;;12.32;6.22;;;;;;;;;;5034943;28;20014;-81
2022/03/20 11:46:03;;;;;;;13.30;5.97;;;;;;;;;;5034507;28;20024;-83
2022/03/20 11:48:28;;;;;;;10.43;6.15;;;;;;;;;;5023850;28;20029;-80
2022/03/20 11:50:53;;;;;;;8.60;5.13;;;;;;;;;;5035096;28;20393;-81
2022/03/20 11:53:29;;;;;;;10.80;5.35;;;;;;;;;;5035329;28;20085;-79
2022/03/20 11:55:54;;;;;;;11.18;5.75;;;;;;;;;;5035093;28;20028;-81
2022/03/20 11:58:20;;;;;;;16.20;5.60;;;;;;;;;;5032393;28;20026;-81
2022/03/20 12:00:57;;;;;;;9.57;5.53;;;;;;;;;;5035053;28;20026;-80
2022/03/20 12:03:41;;;;;;;11.98;5.78;;;;;;;;;;5034970;28;20022;-79
2022/03/20 12:06:18;;;;;;;11.93;5.55;;;;;;;;;;5033770;28;20017;-78
2022/03/20 12:09:03;;;;;;;11.00;5.55;;;;;;;;;;5034021;28;20171;-78
2022/03/20 12:11:28;;;;;;;8.88;5.43;;;;;;;;;;5034307;28;20017;-80
2022/03/20 12:14:03;;;;;;;10.98;5.60;;;;;;;;;;5035232;28;20044;-79
2022/03/20 12:16:43;;;;;;;11.05;5.80;;;;;;;;;;5048837;28;20067;-82
2022/03/20 12:19:09;;;;;;;8.35;5.20;;;;;;;;;;5035508;28;20503;-80
2022/03/20 12:21:52;;;;;;;10.45;5.80;;;;;;;;;;5023901;28;20017;-80
2022/03/20 12:24:51;;;;;;;10.75;5.30;;;;;;;;;;5033562;28;20013;-79
2022/03/20 12:27:23;;;;;;;9.68;4.78;;;;;;;;;;4998326;28;20052;-79
2022/03/20 12:29:51;;;;;;;12.23;5.53;;;;;;;;;;5033092;28;20017;-78
2022/03/20 12:32:16;;;;;;;8.85;4.22;;;;;;;;;;5032663;28;20155;-79
2022/03/20 12:34:43;;;;;;;11.07;5.18;;;;;;;;;;5031635;28;20068;-79
2022/03/20 12:37:27;;;;;;;9.73;5.72;;;;;;;;;;5029428;28;20021;-79
2022/03/20 12:39:54;;;;;;;9.75;5.28;;;;;;;;;;5042758;28;20028;-78
2022/03/20 12:42:19;;;;;;;10.82;5.80;;;;;;;;;;5040916;28;20075;-80
2022/03/20 12:44:46;;;;;;;12.43;5.32;;;;;;;;;;5032060;28;20403;-80
2022/03/20 12:47:11;;;;;;;11.43;5.85;;;;;;;;;;5030288;28;20399;-79
2022/03/20 12:49:38;;;;;;;8.35;5.43;;;;;;;;;;5030704;28;20021;-80
2022/03/20 12:52:03;;;;;;;12.40;6.18;;;;;;;;;;5031975;28;20017;-80
2022/03/20 12:54:29;;;;;;;12.93;6.35;;;;;;;;;;5032291;28;20020;-81
2022/03/20 12:59:23;;;;;;;13.18;5.90;;;;;;;;;;5010376;28;20057;-76
2022/03/20 13:01:48;;;;;;;15.07;5.85;;;;;;;;;;5010554;28;20022;-77
2022/03/20 13:04:21;;;;;;;12.30;6.45;;;;;;;;;;5009320;28;20486;-76
2022/03/20 13:06:46;;;;;;;10.27;6.15;;;;;;;;;;5020511;28;20014;-77
2022/03/20 13:09:12;;;;;;;18.67;6.80;;;;;;;;;;4991842;28;20077;-78
2022/03/20 13:11:53;;;;;;;15.65;5.57;;;;;;;;;;4991353;28;20026;-76
2022/03/20 13:14:19;;;;;;;12.40;5.88;;;;;;;;;;4990732;28;20050;-78
2022/03/20 13:16:51;;;;;;;12.18;6.50;;;;;;;;;;4994153;28;20088;-79
2022/03/20 13:19:29;;;;;;;9.98;5.93;;;;;;;;;;4991625;28;20116;-79
2022/03/20 13:21:54;;;;;;;10.00;5.38;;;;;;;;;;4992801;28;20097;-78
2022/03/20 13:24:30;;;;;;;10.35;5.57;;;;;;;;;;4992773;28;20050;-77
2022/03/20 13:26:59;;;;;;;9.65;6.00;;;;;;;;;;4991425;28;20118;-81
2022/03/20 13:29:24;;;;;;;11.32;6.15;;;;;;;;;;4993144;28;20045;-77
2022/03/20 13:32:09;;;;;;;12.15;6.13;;;;;;;;;;4990076;28;20062;-78
2022/03/20 13:34:43;;;;;;;9.80;6.25;;;;;;;;;;4992219;28;20029;-76
2022/03/20 13:37:10;;;;;;;11.80;6.20;;;;;;;;;;4991972;28;20080;-78
2022/03/20 13:39:36;;;;;;;9.45;5.70;;;;;;;;;;4992497;28;20102;-80
2022/03/20 13:42:12;;;;;;;10.73;6.50;;;;;;;;;;4992706;28;20032;-85
2022/03/20 13:44:38;;;;;;;11.43;6.05;;;;;;;;;;4991899;28;20026;-80
2022/03/20 13:47:04;;;;;;;11.48;5.70;;;;;;;;;;4992407;28;20142;-82
2022/03/20 13:49:30;;;;;;;10.73;6.45;;;;;;;;;;4991115;28;20026;-80
2022/03/20 13:51:56;;;;;;;10.85;6.25;;;;;;;;;;4988931;28;20105;-81
2022/03/20 13:54:27;;;;;;;9.60;6.07;;;;;;;;;;4974337;28;20019;-83
2022/03/20 13:57:20;;;;;;;9.85;5.68;;;;;;;;;;4972686;28;20026;-80
2022/03/20 13:59:50;;;;;;;10.38;6.30;;;;;;;;;;4967350;28;20097;-79
2022/03/20 14:02:15;;;;;;;13.52;5.88;;;;;;;;;;4973334;28;20061;-82
2022/03/20 14:04:40;;;;;;;10.43;5.70;;;;;;;;;;4994006;28;20006;-81
2022/03/20 14:07:17;;;;;;;9.13;5.55;;;;;;;;;;4992021;28;20033;-79
2022/03/20 14:09:42;;;;;;;8.10;5.22;;;;;;;;;;4977346;28;20018;-80
2022/03/20 14:12:27;;;;;;;10.27;5.88;;;;;;;;;;4994782;28;20022;-82
2022/03/20 14:14:52;;;;;;;11.23;5.60;;;;;;;;;;4995027;28;20311;-82
2022/03/20 14:17:23;;;;;;;12.27;5.22;;;;;;;;;;4996382;28;20104;-82
2022/03/20 14:19:49;;;;;;;9.10;5.40;;;;;;;;;;4995337;28;20478;-82
2022/03/20 14:22:14;;;;;;;10.23;5.60;;;;;;;;;;4993140;28;20026;-82
2022/03/20 14:25:06;;;;;;;11.77;5.55;;;;;;;;;;4997138;28;20109;-83
2022/03/20 14:27:30;;;;;;;11.75;5.68;;;;;;;;;;4996852;28;20030;-84
2022/03/20 14:41:23;;;;;;;11.15;5.82;;;;;;;;;;4996376;28;20037;-82
2022/03/20 14:44:07;;;;;;;9.52;4.60;;;;;;;;;;4996223;28;20504;-82
2022/03/20 14:46:32;;;;;;;8.10;4.70;;;;;;;;;;4996261;28;20050;-81
2022/03/20 14:48:58;;;;;;;7.80;4.93;;;;;;;;;;4994510;28;20050;-82
2022/03/20 14:51:24;;;;;;;9.15;5.45;;;;;;;;;;4994904;28;20026;-83
2022/03/20 14:53:50;;;;;;;10.30;5.63;;;;;;;;;;4994067;28;20521;-82
2022/03/20 14:56:16;;;;;;;8.18;5.28;;;;;;;;;;4995378;28;20026;-81
2022/03/20 14:58:41;;;;;;;11.77;5.57;;;;;;;;;;4994091;28;20030;-81
2022/03/20 15:01:10;;;;;;;8.75;5.15;;;;;;;;;;4989575;28;20027;-82
2022/03/20 15:03:36;;;;;;;10.40;4.72;;;;;;;;;;4974772;28;20150;-82
2022/03/20 15:06:02;;;;;;;8.02;4.28;;;;;;;;;;4989543;28;20513;-81
2022/03/20 15:11:26;;;;;;;13.05;4.93;;;;;;;;;;4983421;28;20029;-81
2022/03/20 15:13:58;;;;;;;10.80;5.10;;;;;;;;;;4988817;28;20097;-81
2022/03/20 15:16:24;;;;;;;9.00;4.90;;;;;;;;;;4993895;28;20018;-81
2022/03/20 15:18:50;;;;;;;10.10;4.53;;;;;;;;;;4992669;28;20038;-82
2022/03/20 15:21:16;;;;;;;8.05;4.80;;;;;;;;;;4994071;28;20018;-82
2022/03/20 15:23:41;;;;;;;7.60;4.80;;;;;;;;;;4992529;28;20390;-81
2022/03/20 15:26:06;;;;;;;8.55;4.50;;;;;;;;;;4992726;28;20048;-83
2022/03/20 15:28:32;;;;;;;9.05;4.70;;;;;;;;;;4992881;28;20018;-83
2022/03/20 15:30:58;;;;;;;7.75;4.60;;;;;;;;;;4994243;28;20041;-82
2022/03/20 15:33:23;;;;;;;7.82;4.25;;;;;;;;;;4994242;28;20018;-81
2022/03/20 15:35:49;;;;;;;10.90;4.77;;;;;;;;;;4994159;28;20474;-80
2022/03/20 15:38:15;;;;;;;10.73;4.72;;;;;;;;;;4995077;28;20425;-82
2022/03/20 15:40:40;;;;;;;8.95;4.43;;;;;;;;;;4996004;28;20069;-83
2022/03/20 15:43:05;;;;;;;12.80;4.75;;;;;;;;;;4994139;28;20018;-83
2022/03/20 15:45:31;;;;;;;8.25;4.95;;;;;;;;;;4987935;28;20026;-83
2022/03/20 15:47:56;;;;;;;9.02;4.90;;;;;;;;;;4993492;28;20026;-82
2022/03/20 15:50:21;;;;;;;10.10;4.97;;;;;;;;;;4979683;28;20377;-83
2022/03/20 15:52:47;;;;;;;7.90;4.43;;;;;;;;;;4993762;28;20421;-83
2022/03/20 15:55:12;;;;;;;8.50;4.63;;;;;;;;;;4995070;28;20044;-84
2022/03/20 15:57:37;;;;;;;14.32;4.72;;;;;;;;;;4995775;28;20508;-85
2022/03/20 16:00:03;;;;;;;8.63;4.28;;;;;;;;;;4994665;28;20434;-83
2022/03/20 16:02:29;;;;;;;11.07;5.10;;;;;;;;;;4984664;28;20382;-83
2022/03/20 16:04:54;;;;;;;8.27;4.40;;;;;;;;;;4994777;28;20022;-83